Time;durP1;ratioP1;P1;durP2;ratioP2;P2;SDS_P1;SDS_P2;PMS_P1;PMS_P2;Temp;Humidity;BMP_temperature;BMP_pressure;BME280_temperature;BME280_humidity;BME280_pressure;Samples;Min_cycle;Max_cycle;Signal;HPM_P1;HPM_P2
2023/06/06 00:01:30;;;;;;;10.00;6.47;;;18.80;65.60;;;;;;5045189;28;21071;-76
2023/06/06 00:03:58;;;;;;;11.43;6.77;;;18.90;65.60;;;;;;5050749;28;20549;-76
2023/06/06 00:06:33;;;;;;;8.50;6.57;;;18.90;65.60;;;;;;5044488;28;20462;-77
2023/06/06 00:09:03;;;;;;;8.97;5.67;;;18.90;65.60;;;;;;5063263;28;20468;-76
2023/06/06 00:11:31;;;;;;;9.50;6.10;;;18.90;65.60;;;;;;5046987;28;21100;-76
2023/06/06 00:14:00;;;;;;;9.33;5.60;;;19.00;65.60;;;;;;5046656;28;20482;-76
2023/06/06 00:16:28;;;;;;;8.20;5.90;;;19.00;65.60;;;;;;5048349;28;20450;-76
2023/06/06 00:18:56;;;;;;;8.57;5.50;;;19.00;65.60;;;;;;5045631;28;20481;-77
2023/06/06 00:21:24;;;;;;;9.80;6.57;;;18.90;65.50;;;;;;5046838;28;20585;-76
2023/06/06 00:23:53;;;;;;;12.07;6.80;;;18.90;65.50;;;;;;5059812;28;20455;-76
2023/06/06 00:26:21;;;;;;;11.77;7.40;;;18.80;65.60;;;;;;5045352;28;20800;-76
2023/06/06 00:28:49;;;;;;;10.47;6.40;;;18.80;65.50;;;;;;5042625;28;20566;-77
2023/06/06 00:31:18;;;;;;;9.73;6.30;;;18.70;65.60;;;;;;5045161;28;20484;-76
2023/06/06 00:33:46;;;;;;;9.07;6.10;;;18.70;65.60;;;;;;5047633;28;20474;-76
2023/06/06 00:36:15;;;;;;;10.80;6.70;;;18.60;65.60;;;;;;5048834;28;21007;-75
2023/06/06 00:38:43;;;;;;;12.33;6.70;;;18.60;65.60;;;;;;5054036;28;20505;-76
2023/06/06 00:41:11;;;;;;;8.73;6.03;;;18.50;65.60;;;;;;5064565;28;20485;-76
2023/06/06 00:43:39;;;;;;;9.33;6.70;;;18.50;65.70;;;;;;5047810;28;21203;-77
2023/06/06 00:46:07;;;;;;;9.83;5.70;;;18.40;65.80;;;;;;5048670;28;20493;-76
2023/06/06 00:48:37;;;;;;;8.23;5.70;;;18.30;65.80;;;;;;5062885;28;21226;-76
2023/06/06 00:51:06;;;;;;;9.33;6.10;;;18.30;66.00;;;;;;5050422;28;20479;-76
2023/06/06 00:53:34;;;;;;;8.57;6.27;;;18.20;66.00;;;;;;5051359;28;20461;-76
2023/06/06 00:56:03;;;;;;;13.40;6.20;;;18.10;66.20;;;;;;5059641;28;20476;-75
2023/06/06 00:58:31;;;;;;;9.43;6.17;;;18.10;66.40;;;;;;5053359;28;20455;-76
2023/06/06 01:01:02;;;;;;;9.33;6.50;;;18.10;66.50;;;;;;5048839;28;20857;-76
2023/06/06 01:03:30;;;;;;;10.10;7.20;;;18.10;66.50;;;;;;5052949;28;20519;-76
2023/06/06 01:06:00;;;;;;;10.80;6.67;;;18.10;66.60;;;;;;5050683;28;20509;-75
2023/06/06 01:08:28;;;;;;;11.20;6.93;;;18.10;66.60;;;;;;5052317;28;21108;-76
2023/06/06 01:11:06;;;;;;;11.40;6.83;;;18.00;66.50;;;;;;5050979;28;20467;-75
2023/06/06 01:13:39;;;;;;;9.83;6.00;;;18.00;66.60;;;;;;5050541;28;20465;-76
2023/06/06 01:16:14;;;;;;;9.33;6.30;;;17.90;66.70;;;;;;5052224;28;20456;-76
2023/06/06 01:18:45;;;;;;;10.90;5.90;;;17.90;66.70;;;;;;5051192;28;20484;-75
2023/06/06 01:21:15;;;;;;;8.50;6.23;;;17.90;66.70;;;;;;5050804;28;20504;-76
2023/06/06 01:23:45;;;;;;;9.70;6.07;;;17.90;66.80;;;;;;5052072;28;21170;-76
2023/06/06 01:26:13;;;;;;;12.57;6.23;;;17.80;66.80;;;;;;5051812;28;20582;-75
2023/06/06 01:28:41;;;;;;;9.57;6.60;;;17.80;66.80;;;;;;5049312;28;20547;-76
2023/06/06 01:31:15;;;;;;;9.10;6.20;;;17.70;66.90;;;;;;5064746;28;20494;-76
2023/06/06 01:33:47;;;;;;;10.83;6.70;;;17.70;67.00;;;;;;5052023;28;20458;-76
2023/06/06 01:36:23;;;;;;;8.57;6.30;;;17.80;67.00;;;;;;5047641;28;20482;-77
2023/06/06 01:38:57;;;;;;;11.20;7.00;;;17.80;67.00;;;;;;5048318;28;20741;-76
2023/06/06 01:41:27;;;;;;;9.37;5.93;;;17.80;67.00;;;;;;5051240;28;20637;-77
2023/06/06 01:43:56;;;;;;;9.00;6.03;;;17.80;66.90;;;;;;5062338;28;21253;-77
2023/06/06 01:46:26;;;;;;;8.90;5.90;;;17.80;66.90;;;;;;5052164;28;20461;-77
2023/06/06 01:48:56;;;;;;;10.90;6.00;;;17.90;66.80;;;;;;5051009;28;20505;-77
2023/06/06 01:51:26;;;;;;;10.53;7.70;;;17.90;66.70;;;;;;5048088;28;20458;-77
2023/06/06 01:53:58;;;;;;;10.20;6.90;;;17.80;66.60;;;;;;5047393;28;20473;-77
2023/06/06 01:56:27;;;;;;;10.43;6.53;;;17.80;66.70;;;;;;5048630;28;20495;-77
2023/06/06 01:58:56;;;;;;;12.70;6.80;;;17.70;66.60;;;;;;5043888;28;20500;-75
2023/06/06 02:01:24;;;;;;;10.40;6.77;;;17.60;66.60;;;;;;5048314;28;20541;-75
2023/06/06 02:03:53;;;;;;;13.60;7.30;;;17.50;66.70;;;;;;5051604;28;20448;-76
2023/06/06 02:06:21;;;;;;;11.03;7.00;;;17.40;66.80;;;;;;5056079;28;20474;-77
2023/06/06 02:08:49;;;;;;;10.43;6.80;;;17.30;67.00;;;;;;5052250;28;20452;-76
2023/06/06 02:11:19;;;;;;;12.33;7.27;;;17.30;67.00;;;;;;5060896;28;20499;-76
2023/06/06 02:13:48;;;;;;;12.33;6.83;;;17.20;67.00;;;;;;5048974;28;20567;-76
2023/06/06 02:16:16;;;;;;;11.00;6.53;;;17.20;67.10;;;;;;5042610;28;20498;-76
2023/06/06 02:18:45;;;;;;;11.27;6.07;;;17.20;67.20;;;;;;5056003;28;20483;-76
2023/06/06 02:21:13;;;;;;;12.77;7.07;;;17.20;67.30;;;;;;5048255;28;20563;-76
2023/06/06 02:23:41;;;;;;;12.10;7.00;;;17.20;67.20;;;;;;5046209;28;20467;-76
2023/06/06 02:26:10;;;;;;;9.27;6.37;;;17.20;67.10;;;;;;5050140;28;20675;-76
2023/06/06 02:28:43;;;;;;;9.40;5.90;;;17.20;67.10;;;;;;5045922;28;20599;-77
2023/06/06 02:31:14;;;;;;;11.33;6.80;;;17.20;67.00;;;;;;5052267;28;20479;-76
2023/06/06 02:33:42;;;;;;;10.90;6.57;;;17.10;67.10;;;;;;5049715;28;20442;-76
2023/06/06 02:36:10;;;;;;;10.63;6.20;;;17.20;67.10;;;;;;5065672;28;20474;-76
2023/06/06 02:38:38;;;;;;;11.73;5.93;;;17.10;67.00;;;;;;5042346;28;21248;-76
2023/06/06 02:41:08;;;;;;;12.10;7.13;;;17.10;66.90;;;;;;5062793;28;20533;-76
2023/06/06 02:43:39;;;;;;;12.03;6.97;;;17.00;66.80;;;;;;5046863;28;20941;-77
2023/06/06 02:46:10;;;;;;;8.97;6.30;;;17.00;66.80;;;;;;5062626;28;20618;-77
2023/06/06 02:48:38;;;;;;;9.67;5.90;;;16.90;66.80;;;;;;5048064;28;20561;-77
2023/06/06 02:51:06;;;;;;;9.00;5.80;;;16.80;66.80;;;;;;5043912;28;20456;-77
2023/06/06 02:53:35;;;;;;;9.87;6.70;;;16.80;66.90;;;;;;5054509;28;20940;-76
2023/06/06 02:56:03;;;;;;;9.40;5.83;;;16.80;67.00;;;;;;5053185;28;20520;-76
2023/06/06 02:58:32;;;;;;;9.63;5.70;;;16.80;67.10;;;;;;5048378;28;20844;-77
2023/06/06 03:01:03;;;;;;;10.37;6.70;;;16.80;67.00;;;;;;5048106;28;20583;-76
2023/06/06 03:03:32;;;;;;;10.77;6.20;;;16.80;66.90;;;;;;5050755;28;20518;-77
2023/06/06 03:06:00;;;;;;;9.40;5.90;;;16.80;66.70;;;;;;5050880;28;20553;-77
2023/06/06 03:08:28;;;;;;;10.30;6.50;;;16.70;66.80;;;;;;5055339;28;20529;-77
2023/06/06 03:10:56;;;;;;;8.30;5.50;;;16.70;66.90;;;;;;5046004;28;20450;-77
2023/06/06 03:13:25;;;;;;;11.07;6.63;;;16.70;67.00;;;;;;5062141;28;20467;-75
2023/06/06 03:15:54;;;;;;;9.03;6.33;;;16.80;66.90;;;;;;5047487;28;20469;-76
2023/06/06 03:18:23;;;;;;;9.53;6.93;;;16.70;66.80;;;;;;5049440;28;20474;-76
2023/06/06 03:20:59;;;;;;;9.40;6.17;;;16.70;66.80;;;;;;5046970;28;20471;-76
2023/06/06 03:23:32;;;;;;;9.20;6.47;;;16.70;66.80;;;;;;5042605;28;21006;-76
2023/06/06 03:26:03;;;;;;;9.77;6.23;;;16.60;66.70;;;;;;5049199;28;20524;-76
2023/06/06 03:28:33;;;;;;;10.30;6.17;;;16.60;66.70;;;;;;5048941;28;20884;-76
2023/06/06 03:31:05;;;;;;;15.43;6.47;;;16.50;66.60;;;;;;5048469;28;20727;-76
2023/06/06 03:33:39;;;;;;;9.63;6.03;;;16.50;66.70;;;;;;5056247;28;20458;-76
2023/06/06 03:36:10;;;;;;;8.97;5.93;;;16.40;66.70;;;;;;5063967;28;20475;-75
2023/06/06 03:38:39;;;;;;;10.27;6.13;;;16.40;66.80;;;;;;5043337;28;20569;-75
2023/06/06 03:41:07;;;;;;;11.93;5.80;;;16.40;66.80;;;;;;5041611;28;20486;-75
2023/06/06 03:43:37;;;;;;;10.97;6.60;;;16.40;66.80;;;;;;5045920;28;21343;-76
2023/06/06 03:46:05;;;;;;;9.53;6.10;;;16.50;66.80;;;;;;5048208;28;20489;-76
2023/06/06 03:48:33;;;;;;;10.80;6.40;;;16.40;66.70;;;;;;5045950;28;20859;-75
2023/06/06 03:51:01;;;;;;;11.17;7.10;;;16.40;66.70;;;;;;5054613;28;20457;-77
2023/06/06 03:53:31;;;;;;;10.00;5.80;;;16.40;66.80;;;;;;5047105;28;20573;-77
2023/06/06 03:55:59;;;;;;;9.73;6.10;;;16.40;66.80;;;;;;5063378;28;20466;-78
2023/06/06 03:58:29;;;;;;;13.97;7.60;;;16.40;66.90;;;;;;5048409;28;20698;-76
2023/06/06 04:00:58;;;;;;;9.33;6.30;;;16.40;66.80;;;;;;5044148;28;20490;-77
2023/06/06 04:03:27;;;;;;;8.70;5.90;;;16.40;66.80;;;;;;5046953;28;20974;-77
2023/06/06 04:05:55;;;;;;;15.40;7.20;;;16.40;66.80;;;;;;5043523;28;20543;-77
2023/06/06 04:08:23;;;;;;;8.67;5.93;;;16.40;66.90;;;;;;5064682;28;20455;-77
2023/06/06 04:10:53;;;;;;;9.13;6.20;;;16.50;66.90;;;;;;5048430;28;20485;-77
2023/06/06 04:13:21;;;;;;;14.43;7.23;;;16.50;66.80;;;;;;5048859;28;20462;-77
2023/06/06 04:15:49;;;;;;;10.20;6.83;;;16.50;66.80;;;;;;5047375;28;20806;-77
2023/06/06 04:18:17;;;;;;;10.90;7.80;;;16.50;66.80;;;;;;5046882;28;20498;-77
2023/06/06 04:20:45;;;;;;;12.20;7.07;;;16.50;66.80;;;;;;5048475;28;20619;-77
2023/06/06 04:23:13;;;;;;;12.83;7.27;;;16.50;66.90;;;;;;5060785;28;20486;-76
2023/06/06 04:25:41;;;;;;;12.13;7.40;;;16.50;67.00;;;;;;5064569;28;20491;-76
2023/06/06 04:28:11;;;;;;;14.17;9.07;;;16.60;67.30;;;;;;5046820;28;20971;-76
2023/06/06 04:30:40;;;;;;;13.17;7.77;;;16.70;67.30;;;;;;5046199;28;20505;-76
2023/06/06 04:33:08;;;;;;;9.20;6.07;;;16.80;67.30;;;;;;5042637;28;20648;-76
2023/06/06 04:35:42;;;;;;;10.20;6.73;;;16.90;67.40;;;;;;5060444;28;20479;-76
2023/06/06 04:38:11;;;;;;;9.50;7.23;;;17.10;67.50;;;;;;5040262;28;20448;-77
2023/06/06 04:40:40;;;;;;;10.30;6.50;;;17.20;67.40;;;;;;5048926;28;20679;-74
2023/06/06 04:43:30;;;;;;;8.67;6.00;;;17.40;67.40;;;;;;5045789;28;20462;-75
2023/06/06 04:46:01;;;;;;;12.53;6.27;;;17.60;67.30;;;;;;5044036;28;20702;-78
2023/06/06 04:48:29;;;;;;;10.90;6.93;;;17.70;67.40;;;;;;5060822;28;20491;-77
2023/06/06 04:50:57;;;;;;;10.33;7.07;;;17.80;67.30;;;;;;5042845;28;20542;-77
2023/06/06 04:53:26;;;;;;;8.77;6.07;;;18.00;67.30;;;;;;5043581;28;21231;-77
2023/06/06 04:55:55;;;;;;;12.97;7.43;;;18.10;67.40;;;;;;5048641;28;20510;-77
2023/06/06 04:58:25;;;;;;;10.63;6.93;;;18.20;67.40;;;;;;5048421;28;20935;-78
2023/06/06 05:00:57;;;;;;;12.10;7.13;;;18.40;67.40;;;;;;5046826;28;21057;-76
2023/06/06 05:03:27;;;;;;;15.53;7.13;;;18.50;67.30;;;;;;5049581;28;20676;-78
2023/06/06 05:06:02;;;;;;;10.63;7.40;;;18.60;67.30;;;;;;5048495;28;20548;-77
2023/06/06 05:08:32;;;;;;;10.80;7.60;;;18.70;67.20;;;;;;5047546;28;20967;-77
2023/06/06 05:11:01;;;;;;;12.07;7.63;;;18.80;67.10;;;;;;5044835;28;21205;-77
2023/06/06 05:13:29;;;;;;;13.10;7.90;;;19.00;67.00;;;;;;5048472;28;20561;-77
2023/06/06 05:15:58;;;;;;;11.63;8.30;;;19.10;66.90;;;;;;5047278;28;20500;-77
2023/06/06 05:18:26;;;;;;;15.40;8.00;;;19.20;66.80;;;;;;5050166;28;20503;-77
2023/06/06 05:20:54;;;;;;;12.50;7.13;;;19.40;66.70;;;;;;5066256;28;20516;-77
2023/06/06 05:23:24;;;;;;;10.83;7.53;;;19.50;66.60;;;;;;5051066;28;20494;-77
2023/06/06 05:25:52;;;;;;;11.70;7.00;;;19.60;66.40;;;;;;5052715;28;20529;-77
2023/06/06 05:28:20;;;;;;;11.20;6.90;;;19.80;66.40;;;;;;5052994;28;20458;-77
2023/06/06 05:30:48;;;;;;;11.97;7.53;;;20.00;66.50;;;;;;5066541;28;20481;-77
2023/06/06 05:33:17;;;;;;;11.47;7.37;;;20.20;66.80;;;;;;5052365;28;20561;-77
2023/06/06 05:35:47;;;;;;;14.27;8.53;;;20.50;66.90;;;;;;5048150;28;20580;-77
2023/06/06 05:38:16;;;;;;;11.87;7.10;;;21.10;66.30;;;;;;5049645;28;20949;-77
2023/06/06 05:40:44;;;;;;;14.10;7.90;;;22.00;65.00;;;;;;5051263;28;20464;-77
2023/06/06 05:43:14;;;;;;;14.63;7.57;;;22.90;63.50;;;;;;5047716;28;20491;-77
2023/06/06 05:45:42;;;;;;;11.10;7.60;;;23.70;62.40;;;;;;5053117;28;20466;-77
2023/06/06 05:48:12;;;;;;;11.30;6.90;;;24.40;61.40;;;;;;5051769;28;20531;-78
2023/06/06 05:50:43;;;;;;;10.83;7.47;;;25.10;60.70;;;;;;5065994;28;20484;-78
2023/06/06 05:53:11;;;;;;;18.43;6.93;;;25.80;59.90;;;;;;5065282;28;20470;-77
2023/06/06 05:55:39;;;;;;;13.43;8.00;;;26.30;59.20;;;;;;5055449;28;20469;-78
2023/06/06 05:58:07;;;;;;;9.80;6.77;;;26.80;58.40;;;;;;5052905;28;20554;-77
2023/06/06 06:00:35;;;;;;;10.07;7.27;;;27.30;57.80;;;;;;5050550;28;20509;-77
2023/06/06 06:03:03;;;;;;;11.27;7.10;;;27.70;57.00;;;;;;5065794;28;21118;-78
2023/06/06 06:05:32;;;;;;;11.53;7.03;;;28.10;56.20;;;;;;5044811;28;20459;-77
2023/06/06 06:08:02;;;;;;;10.00;6.70;;;28.40;55.40;;;;;;5048976;28;20537;-77
2023/06/06 06:10:32;;;;;;;10.97;6.67;;;28.60;54.70;;;;;;5050519;28;20496;-78
2023/06/06 06:13:00;;;;;;;11.47;5.67;;;28.40;54.40;;;;;;5049545;28;20476;-77
2023/06/06 06:15:31;;;;;;;8.87;6.17;;;27.90;54.40;;;;;;5050221;28;20541;-77
2023/06/06 06:18:00;;;;;;;8.77;6.00;;;27.50;54.50;;;;;;5060122;28;20594;-78
2023/06/06 06:20:28;;;;;;;11.53;6.37;;;27.00;54.80;;;;;;5049742;28;21003;-77
2023/06/06 06:22:56;;;;;;;11.50;6.20;;;26.50;55.10;;;;;;5046802;28;20475;-77
2023/06/06 06:25:26;;;;;;;9.40;6.20;;;26.00;55.40;;;;;;5052153;28;20465;-77
2023/06/06 06:27:54;;;;;;;8.87;6.60;;;25.50;55.80;;;;;;5051320;28;20490;-77
2023/06/06 06:30:22;;;;;;;10.80;7.20;;;24.90;56.20;;;;;;5045382;28;20593;-77
2023/06/06 06:32:50;;;;;;;9.13;6.17;;;24.50;56.80;;;;;;5052191;28;20478;-77
2023/06/06 06:35:18;;;;;;;15.10;6.03;;;24.00;57.30;;;;;;5051858;28;20470;-78
2023/06/06 06:37:47;;;;;;;10.17;6.40;;;23.70;57.80;;;;;;5046539;28;20549;-78
2023/06/06 06:40:17;;;;;;;9.17;6.73;;;23.40;58.10;;;;;;5050620;28;20473;-77
2023/06/06 06:42:47;;;;;;;11.90;7.13;;;23.10;58.90;;;;;;5052072;28;20478;-78
2023/06/06 06:45:31;;;;;;;8.30;6.03;;;22.90;59.60;;;;;;5068536;28;20469;-77
2023/06/06 06:48:01;;;;;;;9.13;6.60;;;22.60;59.90;;;;;;5050366;28;20458;-77
2023/06/06 06:50:29;;;;;;;11.23;5.70;;;22.50;60.20;;;;;;5051726;28;20497;-77
2023/06/06 06:52:57;;;;;;;9.50;6.40;;;22.30;60.50;;;;;;5047039;28;20537;-77
2023/06/06 06:55:25;;;;;;;9.43;6.10;;;22.20;60.70;;;;;;5051771;28;20457;-78
2023/06/06 06:57:56;;;;;;;13.37;6.53;;;22.10;61.00;;;;;;5052664;28;21297;-77
2023/06/06 07:00:24;;;;;;;8.67;5.87;;;22.00;61.30;;;;;;5063839;28;21025;-77
2023/06/06 07:02:56;;;;;;;9.17;6.27;;;21.90;61.70;;;;;;5045359;28;20504;-78
2023/06/06 07:05:25;;;;;;;10.17;6.90;;;21.70;62.20;;;;;;5062716;28;20458;-76
2023/06/06 07:07:54;;;;;;;10.67;7.37;;;21.70;62.30;;;;;;5051975;28;20470;-77
2023/06/06 07:10:32;;;;;;;14.80;6.93;;;21.60;62.60;;;;;;5046104;28;20458;-77
2023/06/06 07:13:01;;;;;;;10.07;6.67;;;21.60;63.00;;;;;;5049598;28;20471;-77
2023/06/06 07:15:30;;;;;;;13.23;7.00;;;21.50;63.20;;;;;;5055785;28;20459;-77
2023/06/06 07:17:58;;;;;;;10.13;6.07;;;21.40;63.60;;;;;;5052131;28;20517;-77
2023/06/06 07:20:26;;;;;;;12.93;6.80;;;21.40;63.90;;;;;;5066823;28;20529;-77
2023/06/06 07:22:55;;;;;;;13.23;6.93;;;21.40;64.00;;;;;;5049420;28;20474;-77
2023/06/06 07:25:23;;;;;;;10.00;6.40;;;21.50;64.00;;;;;;5048447;28;20458;-77
2023/06/06 07:27:52;;;;;;;9.10;6.50;;;21.50;63.90;;;;;;5050602;28;20544;-78
2023/06/06 07:30:21;;;;;;;9.03;6.00;;;21.60;63.90;;;;;;5062223;28;20528;-77
2023/06/06 07:32:49;;;;;;;9.07;6.00;;;21.70;63.70;;;;;;5050284;28;20454;-77
2023/06/06 07:35:19;;;;;;;11.27;6.43;;;21.70;63.70;;;;;;5045175;28;20529;-77
2023/06/06 07:37:48;;;;;;;11.53;7.13;;;21.70;63.60;;;;;;5050367;28;20752;-77
2023/06/06 07:40:16;;;;;;;10.93;5.67;;;21.70;63.40;;;;;;5062840;28;20467;-78
2023/06/06 07:42:47;;;;;;;11.00;6.47;;;21.70;63.30;;;;;;5060846;28;20451;-77
2023/06/06 07:45:15;;;;;;;8.10;5.63;;;21.70;63.20;;;;;;5050648;28;20458;-77
2023/06/06 07:47:44;;;;;;;9.03;6.47;;;21.80;63.20;;;;;;5052201;28;20466;-77
2023/06/06 07:50:13;;;;;;;9.13;5.60;;;21.80;63.10;;;;;;5041422;28;20770;-77
2023/06/06 07:52:43;;;;;;;11.50;5.73;;;21.80;63.00;;;;;;5048879;28;20493;-76
2023/06/06 07:55:12;;;;;;;12.93;6.13;;;21.90;63.00;;;;;;5047663;28;20451;-77
2023/06/06 07:57:40;;;;;;;11.43;5.67;;;21.90;63.00;;;;;;5054757;28;20450;-77
2023/06/06 08:00:10;;;;;;;9.00;5.40;;;21.90;62.70;;;;;;5049271;28;20508;-77
2023/06/06 08:02:39;;;;;;;8.13;5.40;;;21.90;62.70;;;;;;5048856;28;20911;-77
2023/06/06 08:05:10;;;;;;;8.53;5.13;;;22.00;62.80;;;;;;5059171;28;20471;-77
2023/06/06 08:07:41;;;;;;;10.10;6.70;;;22.10;62.80;;;;;;5042458;28;20459;-77
2023/06/06 08:10:10;;;;;;;9.00;6.10;;;22.10;62.70;;;;;;5048376;28;20875;-77
2023/06/06 08:12:38;;;;;;;9.10;6.13;;;22.10;62.60;;;;;;5048914;28;20459;-77
2023/06/06 08:15:07;;;;;;;9.07;6.10;;;22.00;62.70;;;;;;5064492;28;20870;-78
2023/06/06 08:17:36;;;;;;;14.47;5.60;;;22.00;62.60;;;;;;5049440;28;20462;-76
2023/06/06 08:20:08;;;;;;;10.43;5.60;;;22.00;62.70;;;;;;5045630;28;20535;-77
2023/06/06 08:22:38;;;;;;;10.27;6.30;;;22.00;62.60;;;;;;5048983;28;20455;-77
2023/06/06 08:25:07;;;;;;;9.10;5.80;;;22.10;62.50;;;;;;5046108;28;20479;-77
2023/06/06 08:27:36;;;;;;;11.87;6.70;;;22.10;62.40;;;;;;5050850;28;20542;-77
2023/06/06 08:30:05;;;;;;;11.80;6.60;;;22.10;62.30;;;;;;5048351;28;21034;-77
2023/06/06 08:32:33;;;;;;;12.00;6.20;;;22.10;62.20;;;;;;5048686;28;21339;-77
2023/06/06 08:35:03;;;;;;;8.63;4.70;;;22.20;62.20;;;;;;5050598;28;20565;-77
2023/06/06 08:37:31;;;;;;;8.23;4.70;;;22.20;62.00;;;;;;5044813;28;20555;-77
2023/06/06 08:40:01;;;;;;;9.00;4.93;;;22.20;61.20;;;;;;5048227;28;20889;-77
2023/06/06 08:42:32;;;;;;;8.13;4.97;;;22.20;60.70;;;;;;5047507;28;20923;-78
2023/06/06 08:45:03;;;;;;;9.17;4.80;;;22.30;60.70;;;;;;5049403;28;20475;-77
2023/06/06 08:47:33;;;;;;;7.80;4.00;;;22.30;60.60;;;;;;5049882;28;20450;-77
2023/06/06 08:50:04;;;;;;;9.70;5.37;;;22.40;60.10;;;;;;5051461;28;20442;-77
2023/06/06 08:52:34;;;;;;;8.77;4.43;;;22.40;59.80;;;;;;5047772;28;20474;-77
2023/06/06 08:55:04;;;;;;;10.07;4.73;;;22.40;59.70;;;;;;5049133;28;20466;-78
2023/06/06 08:57:33;;;;;;;9.33;4.47;;;22.50;59.50;;;;;;5053663;28;20490;-77
2023/06/06 09:00:11;;;;;;;8.60;3.70;;;22.50;59.10;;;;;;5051426;28;20467;-77
2023/06/06 09:02:41;;;;;;;14.10;4.83;;;22.50;58.90;;;;;;5053198;28;20537;-77
2023/06/06 09:05:11;;;;;;;7.80;5.00;;;22.50;58.80;;;;;;5052695;28;20531;-77
2023/06/06 09:07:40;;;;;;;6.50;4.30;;;22.60;58.70;;;;;;5051097;28;20808;-77
2023/06/06 09:10:10;;;;;;;10.20;5.40;;;22.60;58.70;;;;;;5063759;28;20805;-78
2023/06/06 09:12:41;;;;;;;9.13;5.37;;;22.70;58.50;;;;;;5050738;28;20554;-77
2023/06/06 09:15:10;;;;;;;8.20;3.83;;;22.70;58.40;;;;;;5050333;28;20486;-78
2023/06/06 09:17:39;;;;;;;7.60;4.00;;;22.80;58.10;;;;;;5066043;28;20483;-78
2023/06/06 09:20:09;;;;;;;8.23;4.47;;;22.80;57.90;;;;;;5049971;28;20546;-78
2023/06/06 09:22:38;;;;;;;6.77;3.87;;;22.90;57.60;;;;;;5049920;28;20473;-78
2023/06/06 09:25:16;;;;;;;7.77;4.33;;;22.90;57.40;;;;;;5053605;28;20921;-77
2023/06/06 09:27:46;;;;;;;7.37;4.47;;;23.00;57.40;;;;;;5053303;28;20974;-77
2023/06/06 09:30:22;;;;;;;6.33;3.33;;;23.10;56.80;;;;;;5050978;28;20450;-78
2023/06/06 09:32:56;;;;;;;7.43;3.80;;;23.10;56.10;;;;;;5051521;28;20461;-78
2023/06/06 09:35:29;;;;;;;7.70;3.90;;;23.00;55.60;;;;;;5049161;28;20994;-78
2023/06/06 09:37:58;;;;;;;7.70;3.50;;;23.00;55.90;;;;;;5044012;28;21215;-78
2023/06/06 09:40:27;;;;;;;8.17;3.70;;;23.00;55.40;;;;;;5051157;28;20562;-78
2023/06/06 09:43:00;;;;;;;6.07;3.03;;;23.00;55.40;;;;;;5067728;28;20454;-77
2023/06/06 09:45:28;;;;;;;7.57;3.47;;;23.00;55.10;;;;;;5057472;28;20466;-77
2023/06/06 09:47:56;;;;;;;7.70;3.83;;;23.10;55.20;;;;;;5068815;28;20501;-77
2023/06/06 09:50:23;;;;;;;7.17;3.70;;;23.10;55.30;;;;;;5051997;28;20461;-78
2023/06/06 09:52:52;;;;;;;6.33;3.10;;;23.20;55.20;;;;;;5050955;28;20991;-78
2023/06/06 09:55:21;;;;;;;7.30;3.40;;;23.30;55.10;;;;;;5054622;28;20458;-78
2023/06/06 09:57:55;;;;;;;8.17;3.50;;;23.30;54.60;;;;;;5050770;28;20509;-78
2023/06/06 10:00:26;;;;;;;8.67;3.63;;;23.30;54.60;;;;;;5048389;28;20975;-77
2023/06/06 10:02:54;;;;;;;9.00;3.70;;;23.30;54.30;;;;;;5053030;28;20450;-77
2023/06/06 10:05:28;;;;;;;7.20;3.63;;;23.20;54.00;;;;;;5049710;28;20512;-78
2023/06/06 10:07:57;;;;;;;6.13;3.70;;;23.30;54.10;;;;;;5053942;28;20458;-78
2023/06/06 10:10:25;;;;;;;9.27;4.20;;;23.40;54.00;;;;;;5052985;28;20445;-79
2023/06/06 10:12:55;;;;;;;10.67;3.93;;;23.40;53.90;;;;;;5052759;28;20550;-77
2023/06/06 10:15:26;;;;;;;6.30;3.37;;;23.40;54.10;;;;;;5051033;28;20465;-76
2023/06/06 10:17:55;;;;;;;11.03;3.80;;;23.40;54.30;;;;;;5054444;28;20557;-76
2023/06/06 10:20:23;;;;;;;7.60;3.77;;;23.40;54.20;;;;;;5051036;28;20937;-78
2023/06/06 10:22:51;;;;;;;6.90;3.70;;;23.50;53.80;;;;;;5052782;28;20485;-78
2023/06/06 10:25:19;;;;;;;7.80;3.50;;;23.60;53.60;;;;;;5048600;28;20485;-76
2023/06/06 10:28:03;;;;;;;6.07;3.20;;;23.60;53.60;;;;;;5048275;28;20466;-76
2023/06/06 10:30:45;;;;;;;8.13;3.50;;;23.60;53.60;;;;;;5053267;28;20476;-77
2023/06/06 10:33:42;;;;;;;9.40;3.67;;;23.70;53.60;;;;;;5058676;28;20466;-77
2023/06/06 10:36:13;;;;;;;7.97;4.20;;;23.80;53.30;;;;;;5047940;28;21128;-76
2023/06/06 10:38:43;;;;;;;7.43;3.30;;;23.70;53.10;;;;;;5050169;28;20721;-76
2023/06/06 10:41:16;;;;;;;8.10;3.87;;;23.70;53.10;;;;;;5049979;28;20565;-76
2023/06/06 10:43:52;;;;;;;7.07;3.00;;;23.80;53.20;;;;;;5049997;28;20537;-76
2023/06/06 10:46:21;;;;;;;8.20;3.63;;;23.80;53.10;;;;;;5050968;28;20486;-76
2023/06/06 10:48:57;;;;;;;9.03;3.57;;;23.90;53.20;;;;;;5050941;28;20516;-76
2023/06/06 10:51:32;;;;;;;6.93;3.73;;;23.90;53.30;;;;;;5047430;28;20544;-76
2023/06/06 10:54:18;;;;;;;7.63;3.33;;;23.90;53.00;;;;;;5051483;28;20512;-77
2023/06/06 10:56:52;;;;;;;7.17;3.63;;;23.90;52.90;;;;;;5061699;28;20454;-76
2023/06/06 10:59:26;;;;;;;6.50;3.80;;;23.90;53.20;;;;;;5064054;28;20728;-76
2023/06/06 11:01:56;;;;;;;9.13;4.23;;;23.90;52.90;;;;;;5048440;28;20481;-76
2023/06/06 11:04:26;;;;;;;7.00;3.20;;;23.90;52.70;;;;;;5046684;28;20502;-75
2023/06/06 11:07:00;;;;;;;7.00;3.23;;;24.00;52.60;;;;;;5047405;28;20516;-75
2023/06/06 11:09:31;;;;;;;6.10;3.13;;;24.00;52.60;;;;;;5048373;28;20437;-75
2023/06/06 11:12:24;;;;;;;7.63;3.30;;;24.00;52.50;;;;;;5045003;28;20573;-75
2023/06/06 11:15:01;;;;;;;12.47;3.17;;;24.10;52.30;;;;;;5045858;28;20466;-75
2023/06/06 11:17:44;;;;;;;10.80;3.33;;;24.10;52.20;;;;;;5046803;28;20833;-75
2023/06/06 11:20:19;;;;;;;6.50;2.90;;;24.00;52.10;;;;;;5046511;28;20481;-76
2023/06/06 11:22:59;;;;;;;9.43;3.37;;;24.00;52.40;;;;;;5044897;28;20449;-76
2023/06/06 11:25:27;;;;;;;7.10;3.33;;;24.00;52.40;;;;;;5048513;28;20994;-75
2023/06/06 11:27:55;;;;;;;14.37;3.47;;;24.00;52.20;;;;;;5042914;28;20455;-75
2023/06/06 11:30:24;;;;;;;7.87;3.50;;;24.00;51.90;;;;;;5046468;28;20467;-76
2023/06/06 11:32:56;;;;;;;8.07;4.00;;;24.00;51.80;;;;;;5047861;28;20454;-76
2023/06/06 11:35:32;;;;;;;7.23;3.23;;;24.00;51.80;;;;;;5047805;28;20574;-76
2023/06/06 11:38:02;;;;;;;5.70;2.97;;;24.00;51.80;;;;;;5046325;28;20467;-75
2023/06/06 11:40:30;;;;;;;12.63;3.57;;;24.10;51.60;;;;;;5046624;28;20466;-75
2023/06/06 11:42:59;;;;;;;9.00;3.83;;;24.20;51.70;;;;;;5047644;28;20532;-76
2023/06/06 11:45:31;;;;;;;7.00;3.13;;;24.20;52.00;;;;;;5044705;28;20902;-75
2023/06/06 11:48:00;;;;;;;5.20;2.50;;;24.30;51.80;;;;;;5058931;28;20733;-76
2023/06/06 11:50:31;;;;;;;6.00;3.13;;;24.40;51.50;;;;;;5049696;28;20590;-75
2023/06/06 11:53:00;;;;;;;8.10;3.57;;;24.50;51.20;;;;;;5047842;28;20706;-75
2023/06/06 11:55:38;;;;;;;7.27;2.87;;;24.50;50.90;;;;;;5047345;28;20534;-75
2023/06/06 11:58:07;;;;;;;8.10;2.70;;;24.60;50.50;;;;;;5049037;28;20474;-76
2023/06/06 12:00:35;;;;;;;6.20;2.83;;;24.60;50.50;;;;;;5045160;28;20481;-75
2023/06/06 12:03:06;;;;;;;9.33;3.20;;;24.70;50.20;;;;;;5041847;28;20456;-76
2023/06/06 12:05:35;;;;;;;5.77;3.20;;;24.70;50.10;;;;;;5044655;28;20493;-75
2023/06/06 12:08:03;;;;;;;6.20;3.03;;;24.60;50.10;;;;;;5060744;28;20973;-75
2023/06/06 12:10:32;;;;;;;6.33;2.77;;;24.60;50.00;;;;;;5046818;28;20481;-75
2023/06/06 12:13:00;;;;;;;8.70;3.50;;;24.50;49.70;;;;;;5046274;28;20451;-75
2023/06/06 12:15:48;;;;;;;8.33;3.30;;;24.50;50.00;;;;;;5046751;28;21190;-75
2023/06/06 12:18:18;;;;;;;8.03;3.50;;;24.60;49.70;;;;;;5056959;28;20465;-76
2023/06/06 12:20:47;;;;;;;7.57;3.30;;;24.70;49.50;;;;;;5046335;28;20476;-76
2023/06/06 12:23:26;;;;;;;7.00;3.53;;;24.70;49.40;;;;;;5044543;28;20473;-76
2023/06/06 12:25:57;;;;;;;6.97;3.30;;;24.70;49.10;;;;;;5044998;28;20478;-76
2023/06/06 12:28:25;;;;;;;8.43;3.37;;;24.60;49.20;;;;;;5046058;28;20466;-75
2023/06/06 12:30:53;;;;;;;6.13;2.70;;;24.60;49.30;;;;;;5044280;28;20470;-76
2023/06/06 12:33:23;;;;;;;8.33;3.70;;;24.70;49.20;;;;;;5044621;28;20524;-73
2023/06/06 12:35:53;;;;;;;6.50;3.37;;;24.60;49.20;;;;;;5046146;28;20530;-76
2023/06/06 12:38:23;;;;;;;6.17;2.90;;;24.60;49.10;;;;;;5045029;28;20458;-73
2023/06/06 12:40:55;;;;;;;6.50;3.00;;;24.70;48.90;;;;;;5042788;28;20463;-73
2023/06/06 12:43:23;;;;;;;9.13;3.10;;;24.70;48.90;;;;;;5044588;28;20516;-76
2023/06/06 12:45:50;;;;;;;8.03;3.10;;;24.70;49.10;;;;;;5044390;28;20982;-77
2023/06/06 12:48:22;;;;;;;6.10;2.87;;;24.80;49.20;;;;;;5045920;28;20674;-76
2023/06/06 12:50:52;;;;;;;5.90;3.17;;;24.80;48.80;;;;;;5041221;28;20502;-75
2023/06/06 12:53:20;;;;;;;6.03;2.67;;;24.80;48.50;;;;;;5041615;28;20456;-76
2023/06/06 12:55:48;;;;;;;6.30;3.03;;;24.80;48.40;;;;;;5044910;28;20545;-76
2023/06/06 12:58:17;;;;;;;6.37;2.97;;;24.80;48.40;;;;;;5047830;28;20459;-76